createdAt,value
2022-08-19T00:02:22.386Z,11.30
2022-08-19T00:04:53.768Z,11.30
2022-08-19T00:07:23.429Z,10.77
2022-08-19T00:09:52.995Z,10.88
2022-08-19T00:12:28.839Z,10.50
2022-08-19T00:14:58.381Z,10.77
2022-08-19T00:17:27.927Z,10.40
2022-08-19T00:19:57.482Z,10.88
2022-08-19T00:22:28.107Z,11.13
2022-08-19T00:24:57.738Z,11.02
2022-08-19T00:27:34.428Z,10.77
2022-08-19T00:30:04.586Z,11.00
2022-08-19T00:32:35.378Z,11.07
2022-08-19T00:35:05.006Z,11.27
2022-08-19T00:37:36.030Z,10.48
2022-08-19T00:40:06.602Z,11.20
2022-08-19T00:42:39.636Z,11.30
2022-08-19T00:45:13.738Z,11.15
2022-08-19T00:47:43.299Z,11.00
2022-08-19T00:50:12.999Z,10.48
2022-08-19T00:52:46.570Z,11.00
2022-08-19T00:55:17.252Z,10.88
2022-08-19T00:57:51.857Z,11.25
2022-08-19T01:00:22.147Z,11.70
2022-08-19T01:02:51.945Z,11.27
2022-08-19T01:05:23.818Z,10.93
2022-08-19T01:07:54.041Z,10.98
2022-08-19T01:10:25.414Z,11.00
2022-08-19T01:12:58.107Z,10.98
2022-08-19T01:15:28.448Z,11.48
2022-08-19T01:17:57.968Z,10.88
2022-08-19T01:20:27.660Z,11.25
2022-08-19T01:23:00.842Z,10.90
2022-08-19T01:25:33.366Z,11.27
2022-08-19T01:28:10.815Z,11.45
2022-08-19T01:30:44.427Z,10.73
2022-08-19T01:33:14.136Z,11.55
2022-08-19T01:35:44.282Z,11.07
2022-08-19T01:38:23.601Z,10.95
2022-08-19T01:40:54.102Z,10.87
2022-08-19T01:43:23.807Z,10.88
2022-08-19T01:45:53.821Z,11.15
2022-08-19T01:48:24.715Z,10.47
2022-08-19T01:53:26.706Z,10.75
2022-08-19T01:56:03.244Z,11.32
2022-08-19T01:58:34.133Z,10.23
2022-08-19T02:03:33.155Z,10.13
2022-08-19T02:06:03.695Z,11.60
2022-08-19T02:08:36.959Z,11.35
2022-08-19T02:11:06.802Z,11.20
2022-08-19T02:13:36.447Z,10.70
2022-08-19T02:16:06.808Z,10.60
2022-08-19T02:18:36.593Z,11.85
2022-08-19T02:21:07.304Z,11.40
2022-08-19T02:23:39.773Z,10.80
2022-08-19T02:26:09.617Z,11.93
2022-08-19T02:28:39.184Z,11.75
2022-08-19T02:31:12.834Z,11.23
2022-08-19T02:33:42.739Z,11.13
2022-08-19T02:36:13.113Z,11.02
2022-08-19T02:38:54.825Z,11.15
2022-08-19T02:41:26.930Z,11.18
2022-08-19T02:44:20.417Z,10.18
2022-08-19T02:46:48.231Z,11.30
2022-08-19T02:49:18.242Z,11.20
2022-08-19T02:51:48.383Z,11.63
2022-08-19T02:54:20.592Z,11.60
2022-08-19T02:56:50.215Z,12.45
2022-08-19T02:59:20.145Z,11.23
2022-08-19T03:01:52.516Z,11.57
2022-08-19T03:04:24.233Z,10.68
2022-08-19T03:06:53.851Z,10.90
2022-08-19T03:09:26.031Z,10.88
2022-08-19T03:11:55.606Z,10.85
2022-08-19T03:14:25.189Z,10.90
2022-08-19T03:16:55.399Z,11.98
2022-08-19T03:19:25.046Z,11.63
2022-08-19T03:21:54.717Z,10.57
2022-08-19T03:24:27.044Z,11.00
2022-08-19T03:26:59.588Z,11.15
2022-08-19T03:29:31.175Z,11.05
2022-08-19T03:32:01.880Z,10.23
2022-08-19T03:34:32.447Z,9.90
2022-08-19T03:37:02.678Z,10.30
2022-08-19T03:39:34.939Z,10.77
2022-08-19T03:42:29.307Z,10.90
2022-08-19T03:44:54.410Z,9.18
2022-08-19T03:47:24.000Z,10.02
2022-08-19T03:49:53.581Z,10.30
2022-08-19T03:52:23.234Z,9.73
2022-08-19T03:54:55.433Z,9.65
2022-08-19T03:57:32.020Z,9.75
2022-08-19T04:00:13.179Z,10.30
2022-08-19T04:02:56.470Z,9.63
2022-08-19T04:05:31.254Z,8.98
2022-08-19T04:08:01.648Z,9.07
2022-08-19T04:10:34.018Z,8.73
2022-08-19T04:13:03.596Z,9.70
2022-08-19T04:15:36.817Z,8.82
2022-08-19T04:18:08.774Z,8.85
2022-08-19T04:20:43.047Z,8.85
2022-08-19T04:23:12.568Z,8.70
2022-08-19T04:25:46.738Z,9.32
2022-08-19T04:28:16.399Z,9.60
2022-08-19T04:30:47.241Z,9.38
2022-08-19T04:33:17.461Z,7.97
2022-08-19T04:35:55.667Z,8.73
2022-08-19T04:38:25.681Z,9.23
2022-08-19T04:41:10.358Z,8.63
2022-08-19T04:43:41.227Z,9.50
2022-08-19T04:46:11.712Z,9.60
2022-08-19T04:48:58.222Z,9.25
2022-08-19T04:51:27.855Z,9.00
2022-08-19T04:53:57.843Z,9.23
2022-08-19T04:56:30.104Z,7.93
2022-08-19T04:59:04.017Z,9.30
2022-08-19T05:01:34.073Z,9.70
2022-08-19T05:04:05.685Z,9.60
2022-08-19T05:06:36.049Z,9.77
2022-08-19T05:09:06.077Z,10.20
2022-08-19T05:11:40.187Z,10.27
2022-08-19T05:14:09.978Z,9.82
2022-08-19T05:16:39.597Z,10.27
2022-08-19T05:19:21.660Z,9.80
2022-08-19T05:22:03.711Z,10.30
2022-08-19T05:24:35.276Z,9.52
2022-08-19T05:27:08.717Z,10.80
2022-08-19T05:29:38.438Z,10.23
2022-08-19T05:32:09.367Z,10.77
2022-08-19T05:37:09.452Z,9.15
2022-08-19T05:39:41.559Z,9.05
2022-08-19T05:42:15.377Z,9.45
2022-08-19T05:44:46.705Z,9.05
2022-08-19T05:47:16.854Z,9.65
2022-08-19T05:49:46.718Z,9.63
2022-08-19T05:52:18.810Z,9.25
2022-08-19T05:54:51.083Z,9.82
2022-08-19T05:57:23.831Z,9.15
2022-08-19T05:59:58.278Z,9.77
2022-08-19T06:02:28.503Z,9.00
2022-08-19T06:04:58.300Z,9.60
2022-08-19T06:07:28.516Z,9.23
2022-08-19T06:09:59.951Z,9.05
2022-08-19T06:12:35.386Z,9.27
2022-08-19T06:15:06.214Z,9.65
2022-08-19T06:17:36.263Z,9.30
2022-08-19T06:20:07.204Z,9.38
2022-08-19T06:25:11.171Z,9.25
2022-08-19T06:28:14.610Z,9.93
2022-08-19T06:30:33.538Z,9.15
2022-08-19T06:33:03.698Z,10.10
2022-08-19T06:35:33.553Z,9.82
2022-08-19T06:38:04.397Z,8.82
2022-08-19T06:40:34.180Z,9.98
2022-08-19T06:43:08.606Z,9.52
2022-08-19T06:45:40.652Z,8.75
2022-08-19T06:48:10.578Z,9.30
2022-08-19T06:50:41.388Z,9.07
2022-08-19T06:53:10.981Z,8.20
2022-08-19T06:55:42.188Z,8.23
2022-08-19T06:58:15.234Z,9.02
2022-08-19T07:00:44.845Z,8.15
2022-08-19T07:03:14.678Z,8.55
2022-08-19T07:05:45.600Z,8.60
2022-08-19T07:08:16.044Z,8.60
2022-08-19T07:10:47.647Z,8.00
2022-08-19T07:13:20.382Z,7.55
2022-08-19T07:15:50.536Z,9.48
2022-08-19T07:18:22.601Z,9.07
2022-08-19T07:20:52.230Z,8.48
2022-08-19T07:23:22.528Z,8.07
2022-08-19T07:25:53.468Z,8.70
2022-08-19T07:28:25.706Z,9.27
2022-08-19T07:30:57.440Z,9.80
2022-08-19T07:33:28.055Z,11.82
2022-08-19T07:35:57.697Z,11.13
2022-08-19T07:38:27.269Z,10.07
2022-08-19T07:40:57.225Z,11.32
2022-08-19T07:43:34.948Z,10.47
2022-08-19T07:46:04.962Z,10.77
2022-08-19T07:48:34.886Z,12.00
2022-08-19T07:51:05.696Z,13.30
2022-08-19T07:56:10.253Z,11.52
2022-08-19T07:58:45.375Z,10.90
2022-08-19T08:01:16.541Z,12.10
2022-08-19T08:03:58.656Z,11.73
2022-08-19T08:06:40.676Z,12.25
2022-08-19T08:11:54.407Z,11.75
2022-08-19T08:14:35.065Z,12.52
2022-08-19T08:19:42.112Z,11.38
2022-08-19T08:22:32.147Z,12.57
2022-08-19T08:25:05.248Z,13.40
2022-08-19T08:27:40.618Z,13.73
2022-08-19T08:30:13.786Z,13.38
2022-08-19T08:32:44.044Z,12.55
2022-08-19T08:35:17.620Z,10.27
2022-08-19T08:37:49.183Z,10.75
2022-08-19T08:40:22.748Z,10.95
2022-08-19T08:42:55.009Z,12.45
2022-08-19T08:45:27.706Z,11.38
2022-08-19T08:48:04.352Z,10.82
2022-08-19T08:50:53.421Z,10.68
2022-08-19T08:53:26.407Z,11.15
2022-08-19T08:55:59.598Z,12.52
2022-08-19T08:58:31.772Z,11.27
2022-08-19T09:01:04.017Z,11.80
2022-08-19T09:03:33.652Z,12.30
2022-08-19T09:06:12.037Z,10.75
2022-08-19T09:08:44.617Z,11.07
2022-08-19T09:11:16.293Z,10.13
2022-08-19T09:14:29.228Z,9.27
2022-08-19T09:17:04.486Z,8.88
2022-08-19T09:19:34.216Z,8.95
2022-08-19T09:22:03.803Z,8.73
2022-08-19T09:24:33.419Z,7.82
2022-08-19T09:27:15.998Z,6.97
2022-08-19T09:29:49.567Z,7.38
2022-08-19T09:32:26.148Z,6.95
2022-08-19T09:34:59.070Z,6.75
2022-08-19T09:37:28.800Z,6.85
2022-08-19T09:39:59.380Z,6.82
2022-08-19T09:42:30.549Z,6.00
2022-08-19T09:45:05.364Z,6.60
2022-08-19T09:47:42.676Z,6.25
2022-08-19T09:50:16.612Z,6.25
2022-08-19T09:52:55.068Z,6.57
2022-08-19T09:58:04.093Z,5.70
2022-08-19T10:00:34.561Z,6.18
2022-08-19T10:03:07.115Z,5.50
2022-08-19T10:05:55.240Z,6.57
2022-08-19T10:08:26.755Z,6.15
2022-08-19T10:10:56.822Z,6.30
2022-08-19T10:13:32.993Z,6.13
2022-08-19T10:16:07.513Z,5.47
2022-08-19T10:18:40.851Z,5.75
2022-08-19T10:21:15.492Z,5.60
2022-08-19T10:23:47.343Z,6.40
2022-08-19T10:26:18.043Z,5.60
2022-08-19T10:28:48.724Z,6.13
2022-08-19T10:31:21.349Z,5.68
2022-08-19T10:34:26.789Z,5.70
2022-08-19T10:37:00.924Z,5.55
2022-08-19T10:39:41.175Z,5.38
2022-08-19T10:42:14.769Z,5.38
2022-08-19T10:44:44.738Z,4.68
2022-08-19T10:47:17.209Z,4.78
2022-08-19T10:50:07.598Z,4.70
2022-08-19T10:52:49.689Z,5.20
2022-08-19T10:55:32.774Z,4.93
2022-08-19T10:58:03.123Z,4.95
2022-08-19T11:00:32.907Z,4.30
2022-08-19T11:03:02.612Z,4.63
2022-08-19T11:05:39.701Z,4.23
2022-08-19T11:08:22.137Z,4.85
2022-08-19T11:10:52.283Z,4.88
2022-08-19T11:13:21.949Z,4.53
2022-08-19T11:15:51.594Z,4.20
2022-08-19T11:18:21.195Z,3.43
2022-08-19T11:20:53.752Z,3.95
2022-08-19T11:23:23.325Z,4.05
2022-08-19T11:25:54.201Z,4.60
2022-08-19T11:28:23.848Z,4.10
2022-08-19T11:30:53.348Z,3.90
2022-08-19T11:33:22.927Z,4.20
2022-08-19T11:35:55.089Z,4.05
2022-08-19T11:38:24.712Z,3.70
2022-08-19T11:41:01.240Z,4.80
2022-08-19T11:43:36.801Z,4.32
2022-08-19T11:46:08.473Z,4.60
2022-08-19T11:48:38.126Z,3.75
2022-08-19T11:51:14.262Z,3.90
2022-08-19T11:53:43.894Z,4.10
2022-08-19T11:56:13.648Z,4.07
2022-08-19T11:58:43.397Z,4.00
2022-08-19T12:01:13.328Z,3.93
2022-08-19T12:03:43.102Z,3.30
2022-08-19T12:06:17.755Z,3.65
2022-08-19T12:08:48.523Z,3.60
2022-08-19T12:11:18.090Z,3.85
2022-08-19T12:13:48.843Z,4.10
2022-08-19T12:16:20.246Z,3.80
2022-08-19T12:18:55.036Z,3.88
2022-08-19T12:21:29.580Z,4.10
2022-08-19T12:23:59.627Z,3.60
2022-08-19T12:26:29.730Z,3.70
2022-08-19T12:29:00.519Z,4.10
2022-08-19T12:31:30.249Z,3.80
2022-08-19T12:33:59.828Z,3.90
2022-08-19T12:36:31.995Z,4.03
2022-08-19T12:39:02.517Z,4.03
2022-08-19T12:41:32.093Z,4.32
2022-08-19T12:44:01.902Z,4.00
2022-08-19T12:46:32.532Z,4.35
2022-08-19T12:49:05.152Z,4.10
2022-08-19T12:51:56.703Z,3.80
2022-08-19T12:54:26.248Z,3.90
2022-08-19T12:56:55.826Z,3.83
2022-08-19T12:59:25.427Z,3.90
2022-08-19T13:01:55.063Z,4.90
2022-08-19T13:04:24.674Z,4.13
2022-08-19T13:06:56.879Z,4.20
2022-08-19T13:09:26.499Z,4.30
2022-08-19T13:11:57.869Z,4.20
2022-08-19T13:14:27.435Z,4.53
2022-08-19T13:16:57.003Z,4.37
2022-08-19T13:19:28.946Z,4.50
2022-08-19T13:22:02.433Z,4.30
2022-08-19T13:24:33.920Z,4.60
2022-08-19T13:27:06.769Z,4.10
2022-08-19T13:29:48.965Z,4.18
2022-08-19T13:32:31.152Z,4.68
2022-08-19T13:35:02.675Z,4.45
2022-08-19T13:37:47.112Z,4.22
2022-08-19T13:40:19.596Z,4.22
2022-08-19T13:42:50.275Z,4.35
2022-08-19T13:45:20.624Z,4.60
2022-08-19T13:47:52.043Z,4.53
2022-08-19T13:50:24.087Z,4.50
2022-08-19T13:55:25.980Z,4.30
2022-08-19T13:57:55.820Z,4.47
2022-08-19T14:00:27.544Z,4.57
2022-08-19T14:02:58.600Z,4.80
2022-08-19T14:05:29.307Z,4.70
2022-08-19T14:08:01.692Z,4.70
2022-08-19T14:10:32.684Z,4.43
2022-08-19T14:13:03.214Z,4.45
2022-08-19T14:15:32.858Z,4.70
2022-08-19T14:18:03.665Z,4.60
2022-08-19T14:20:33.292Z,4.70
2022-08-19T14:23:06.224Z,4.37
2022-08-19T14:25:36.112Z,4.38
2022-08-19T14:28:06.064Z,4.40
2022-08-19T14:30:38.729Z,4.72
2022-08-19T14:33:09.560Z,4.53
2022-08-19T14:35:39.534Z,4.88
2022-08-19T14:38:18.714Z,4.30
2022-08-19T14:40:58.759Z,4.72
2022-08-19T14:43:28.421Z,4.78
2022-08-19T14:45:58.116Z,4.60
2022-08-19T14:48:29.136Z,4.50
2022-08-19T14:50:58.844Z,4.93
2022-08-19T14:53:31.055Z,5.00
2022-08-19T14:56:00.614Z,4.88
2022-08-19T14:58:30.567Z,5.13
2022-08-19T15:01:01.716Z,5.00
2022-08-19T15:03:32.649Z,4.90
2022-08-19T15:06:03.340Z,5.00
2022-08-19T15:08:36.254Z,4.95
2022-08-19T15:11:05.930Z,5.15
2022-08-19T15:13:35.555Z,5.18
2022-08-19T15:16:05.598Z,4.85
2022-08-19T15:18:36.036Z,4.88
2022-08-19T15:23:37.697Z,5.55
2022-08-19T15:26:11.573Z,4.88
2022-08-19T15:28:45.772Z,4.78
2022-08-19T15:31:17.089Z,5.20
2022-08-19T15:33:57.146Z,4.90
2022-08-19T15:36:27.149Z,5.07
2022-08-19T15:39:00.171Z,5.30
2022-08-19T15:41:30.968Z,5.07
2022-08-19T15:44:03.258Z,5.20
2022-08-19T15:46:34.499Z,4.82
2022-08-19T15:49:04.107Z,4.63
2022-08-19T15:51:35.542Z,5.00
2022-08-19T15:54:08.584Z,4.88
2022-08-19T15:56:57.988Z,4.65
2022-08-19T15:59:46.939Z,5.05
2022-08-19T16:02:32.094Z,4.88
2022-08-19T16:05:14.315Z,4.85
2022-08-19T16:07:43.876Z,5.50
2022-08-19T16:10:26.204Z,5.67
2022-08-19T16:12:57.398Z,5.30
2022-08-19T16:15:27.946Z,4.70
2022-08-19T16:20:28.051Z,5.55
2022-08-19T16:22:58.640Z,5.03
2022-08-19T16:25:30.882Z,5.20
2022-08-19T16:28:06.561Z,5.18
2022-08-19T16:30:37.712Z,5.15
2022-08-19T16:33:13.973Z,5.30
2022-08-19T16:36:08.768Z,4.97
2022-08-19T16:38:44.015Z,5.35
2022-08-19T16:41:18.669Z,5.65
2022-08-19T16:43:58.010Z,5.35
2022-08-19T16:50:59.637Z,5.45
2022-08-19T16:53:47.158Z,5.68
2022-08-19T16:56:29.363Z,5.38
2022-08-19T16:59:55.735Z,5.68
2022-08-19T17:02:29.632Z,5.95
2022-08-19T17:05:00.789Z,5.57
2022-08-19T17:07:33.698Z,5.45
2022-08-19T17:10:03.472Z,5.82
2022-08-19T17:12:37.825Z,5.60
2022-08-19T17:15:11.577Z,6.38
2022-08-19T17:17:42.047Z,6.43
2022-08-19T17:20:15.628Z,5.70
2022-08-19T17:22:45.238Z,5.88
2022-08-19T17:25:18.512Z,6.10
2022-08-19T17:27:51.653Z,6.18
2022-08-19T17:30:22.356Z,6.57
2022-08-19T17:32:52.024Z,6.47
2022-08-19T17:35:30.072Z,6.07
2022-08-19T17:38:02.873Z,6.65
2022-08-19T17:40:42.335Z,6.22
2022-08-19T17:43:15.812Z,6.50
2022-08-19T17:45:48.246Z,6.25
2022-08-19T17:48:18.137Z,6.22
2022-08-19T17:53:24.758Z,5.47
2022-08-19T17:56:13.422Z,5.57
2022-08-19T17:59:00.049Z,5.80
2022-08-19T18:01:51.922Z,5.63
2022-08-19T18:04:20.476Z,5.28
2022-08-19T18:06:53.656Z,5.55
2022-08-19T18:09:25.958Z,5.55
2022-08-19T18:11:57.114Z,5.35
2022-08-19T18:14:33.736Z,5.55
2022-08-19T18:17:06.184Z,5.20
2022-08-19T18:19:41.223Z,5.18
2022-08-19T18:22:13.321Z,5.10
2022-08-19T18:24:45.866Z,4.90
2022-08-19T18:27:18.787Z,5.47
2022-08-19T18:29:54.157Z,5.18
2022-08-19T18:32:25.531Z,5.28
2022-08-19T18:34:56.287Z,5.53
2022-08-19T18:37:29.193Z,5.43
2022-08-19T18:40:11.280Z,5.15
2022-08-19T18:42:57.570Z,5.28
2022-08-19T18:45:43.671Z,5.50
2022-08-19T18:48:27.418Z,5.80
2022-08-19T18:50:58.750Z,5.50
2022-08-19T18:55:58.127Z,5.88
2022-08-19T18:58:33.890Z,5.43
2022-08-19T19:01:11.645Z,5.70
2022-08-19T19:03:42.917Z,6.05
2022-08-19T19:06:12.509Z,5.57
2022-08-19T19:08:42.121Z,5.25
2022-08-19T19:11:11.709Z,5.00
2022-08-19T19:13:41.922Z,5.07
2022-08-19T19:16:14.224Z,4.93
2022-08-19T19:18:44.694Z,4.38
2022-08-19T19:21:42.046Z,4.72
2022-08-19T19:24:14.416Z,4.15
2022-08-19T19:26:51.517Z,3.88
2022-08-19T19:29:24.214Z,3.90
2022-08-19T19:31:56.569Z,3.83
2022-08-19T19:34:29.573Z,3.83
2022-08-19T19:36:59.822Z,3.45
2022-08-19T19:39:45.109Z,3.20
2022-08-19T19:42:21.007Z,3.25
2022-08-19T19:44:51.597Z,3.08
2022-08-19T19:47:28.196Z,2.90
2022-08-19T19:50:15.299Z,3.25
2022-08-19T19:52:45.750Z,2.97
2022-08-19T19:55:18.415Z,2.80
2022-08-19T19:58:08.051Z,2.78
2022-08-19T20:00:40.212Z,3.00
2022-08-19T20:03:12.570Z,2.90
2022-08-19T20:05:42.248Z,2.33
2022-08-19T20:08:24.281Z,2.55
2022-08-19T20:10:53.939Z,2.40
2022-08-19T20:13:23.553Z,2.65
2022-08-19T20:15:55.119Z,2.20
2022-08-19T20:18:29.217Z,2.30
2022-08-19T20:21:00.254Z,2.20
2022-08-19T20:23:31.224Z,2.30
2022-08-19T20:26:01.786Z,2.15
2022-08-19T20:28:33.467Z,2.08
2022-08-19T20:31:03.520Z,1.85
2022-08-19T20:33:40.329Z,1.88
2022-08-19T20:36:10.595Z,2.10
2022-08-19T20:38:40.823Z,2.10
2022-08-19T20:41:21.955Z,2.17
2022-08-19T20:43:51.840Z,2.00
2022-08-19T20:46:21.631Z,1.87
2022-08-19T20:48:53.821Z,2.20
2022-08-19T20:51:24.096Z,2.20
2022-08-19T20:53:53.698Z,2.20
2022-08-19T20:56:23.395Z,2.30
2022-08-19T20:58:57.967Z,2.00
2022-08-19T21:01:29.516Z,1.90
2022-08-19T21:04:04.821Z,2.05
2022-08-19T21:06:34.440Z,2.00
2022-08-19T21:09:04.046Z,2.35
2022-08-19T21:11:34.406Z,1.92
2022-08-19T21:14:03.991Z,2.10
2022-08-19T21:16:34.088Z,2.20
2022-08-19T21:19:08.559Z,2.17
2022-08-19T21:21:51.554Z,1.95
2022-08-19T21:24:31.424Z,1.90
2022-08-19T21:27:05.783Z,1.90
2022-08-19T21:29:37.470Z,1.90
2022-08-19T21:32:07.703Z,1.90
2022-08-19T21:34:41.389Z,1.98
2022-08-19T21:37:18.995Z,1.92
2022-08-19T21:39:58.356Z,1.70
2022-08-19T21:42:27.966Z,1.70
2022-08-19T21:45:01.068Z,1.60
2022-08-19T21:47:30.699Z,1.75
2022-08-19T21:50:07.477Z,1.60
2022-08-19T21:52:37.175Z,1.65
2022-08-19T21:55:07.962Z,1.70
2022-08-19T22:00:15.637Z,1.60
2022-08-19T22:02:45.718Z,1.52
2022-08-19T22:05:20.547Z,1.80
2022-08-19T22:07:50.203Z,1.70
2022-08-19T22:10:22.313Z,1.70
2022-08-19T22:12:51.879Z,1.80
2022-08-19T22:15:26.228Z,1.80
2022-08-19T22:17:57.140Z,1.70
2022-08-19T22:20:36.238Z,1.60
2022-08-19T22:23:09.628Z,1.50
2022-08-19T22:25:40.580Z,1.63
2022-08-19T22:28:13.984Z,1.58
2022-08-19T22:30:44.290Z,1.60
2022-08-19T22:33:16.597Z,1.63
2022-08-19T22:35:49.284Z,1.85
2022-08-19T22:38:19.439Z,1.65
2022-08-19T22:40:50.131Z,1.70
2022-08-19T22:43:20.982Z,1.67
2022-08-19T22:45:51.742Z,1.90
2022-08-19T22:51:06.887Z,1.70
2022-08-19T22:53:36.767Z,1.60
2022-08-19T22:56:06.800Z,1.90
2022-08-19T22:58:37.532Z,1.63
2022-08-19T23:01:10.923Z,1.65
2022-08-19T23:03:42.613Z,1.60
2022-08-19T23:06:15.183Z,1.70
2022-08-19T23:08:44.959Z,1.80
2022-08-19T23:11:14.553Z,1.45
2022-08-19T23:13:44.235Z,1.60
2022-08-19T23:16:13.811Z,1.80
2022-08-19T23:18:45.466Z,1.67
2022-08-19T23:21:17.664Z,1.50
2022-08-19T23:23:49.693Z,1.58
2022-08-19T23:26:19.261Z,1.77
2022-08-19T23:29:01.346Z,1.60
2022-08-19T23:31:30.980Z,1.80
2022-08-19T23:34:00.574Z,1.60
2022-08-19T23:36:32.794Z,1.75
2022-08-19T23:39:02.484Z,1.85
2022-08-19T23:41:32.147Z,2.03
2022-08-19T23:44:02.340Z,1.67
2022-08-19T23:46:34.450Z,1.67
2022-08-19T23:49:10.623Z,1.60
2022-08-19T23:51:42.843Z,1.70
2022-08-19T23:54:12.409Z,1.65
2022-08-19T23:56:41.992Z,1.70
2022-08-19T23:59:15.542Z,1.90
